createdAt,value
2022-11-04T00:05:33.546Z,10.85
2022-11-04T00:15:32.402Z,11.02
2022-11-04T00:25:32.714Z,11.27
2022-11-04T00:35:32.758Z,11.27
2022-11-04T00:45:33.037Z,11.15
2022-11-04T00:55:33.059Z,11.52
2022-11-04T01:05:33.379Z,11.61
2022-11-04T01:15:33.400Z,11.27
2022-11-04T01:25:33.719Z,11.57
2022-11-04T01:35:33.760Z,11.49
2022-11-04T01:45:34.061Z,11.42
2022-11-04T01:55:34.092Z,10.92
2022-11-04T02:05:34.432Z,10.47
2022-11-04T02:15:34.463Z,10.29
2022-11-04T02:25:34.784Z,10.22
2022-11-04T02:35:34.803Z,10.14
2022-11-04T02:45:35.123Z,10.45
2022-11-04T02:55:35.160Z,10.20
2022-11-04T03:05:35.478Z,10.14
2022-11-04T03:15:35.508Z,10.25
2022-11-04T03:25:35.825Z,10.12
2022-11-04T03:35:35.838Z,9.97
2022-11-04T03:45:36.166Z,9.76
2022-11-04T03:55:36.195Z,9.53
2022-11-04T04:05:36.518Z,9.21
2022-11-04T04:15:36.678Z,9.14
2022-11-04T04:25:36.799Z,9.10
2022-11-04T04:35:36.834Z,8.86
2022-11-04T04:45:37.173Z,8.91
2022-11-04T04:55:40.732Z,8.84
2022-11-04T05:05:38.455Z,8.68
2022-11-04T05:15:37.746Z,8.65
2022-11-04T05:25:37.796Z,8.59
2022-11-04T05:35:38.107Z,8.65
2022-11-04T05:45:38.305Z,8.56
2022-11-04T05:55:38.440Z,8.48
2022-11-04T06:05:38.490Z,8.65
2022-11-04T06:15:38.842Z,8.59
2022-11-04T06:25:38.868Z,8.62
2022-11-04T06:35:39.140Z,8.62
2022-11-04T06:45:39.157Z,8.58
2022-11-04T06:55:39.492Z,8.55
2022-11-04T07:05:39.512Z,8.43
2022-11-04T07:15:39.830Z,8.45
2022-11-04T07:25:39.857Z,8.55
2022-11-04T07:35:40.188Z,8.45
2022-11-04T07:45:40.205Z,8.48
2022-11-04T07:55:43.540Z,8.59
2022-11-04T08:05:40.553Z,8.70
2022-11-04T08:15:40.888Z,8.80
2022-11-04T08:25:40.927Z,8.96
2022-11-04T08:35:41.356Z,9.02
2022-11-04T08:45:41.387Z,9.05
2022-11-04T08:55:41.699Z,9.11
2022-11-04T09:05:41.730Z,9.28
2022-11-04T09:15:42.049Z,9.48
2022-11-04T09:25:42.119Z,9.39
2022-11-04T09:35:42.396Z,9.40
2022-11-04T09:45:42.460Z,9.56
2022-11-04T09:55:42.737Z,9.72
2022-11-04T10:05:42.774Z,9.79
2022-11-04T10:15:43.083Z,9.96
2022-11-04T10:25:43.093Z,10.04
2022-11-04T10:35:43.443Z,10.42
2022-11-04T10:45:43.481Z,10.53
2022-11-04T10:55:43.758Z,10.78
2022-11-04T11:05:43.783Z,10.73
2022-11-04T11:15:44.006Z,11.28
2022-11-04T11:25:44.232Z,12.57
2022-11-04T11:35:44.462Z,13.39
2022-11-04T11:45:44.696Z,13.54
2022-11-04T11:55:44.923Z,13.85
2022-11-04T12:15:46.231Z,13.73
2022-11-04T12:25:45.560Z,13.54
2022-11-04T12:35:45.741Z,13.30
2022-11-04T12:45:45.820Z,13.45
2022-11-04T12:55:45.866Z,13.51
2022-11-04T13:05:46.168Z,13.71
2022-11-04T13:15:46.191Z,13.71
2022-11-04T13:25:46.537Z,13.64
2022-11-04T13:35:46.554Z,13.32
2022-11-04T13:45:51.503Z,13.33
2022-11-04T13:55:46.912Z,13.38
2022-11-04T14:05:47.211Z,13.59
2022-11-04T14:15:47.236Z,13.28
2022-11-04T14:25:47.572Z,13.10
2022-11-04T14:35:47.676Z,12.74
2022-11-04T14:45:47.811Z,12.52
2022-11-04T14:55:47.852Z,12.23
2022-11-04T15:05:50.704Z,12.10
2022-11-04T15:15:48.353Z,11.90
2022-11-04T15:25:48.614Z,11.83
2022-11-04T15:35:48.992Z,11.86
2022-11-04T15:45:49.086Z,11.79
2022-11-04T15:55:49.105Z,11.70
2022-11-04T16:05:49.525Z,11.61
2022-11-04T16:15:49.597Z,11.39
2022-11-04T16:25:50.084Z,11.28
2022-11-04T16:35:49.981Z,11.21
2022-11-04T16:45:53.879Z,11.19
2022-11-04T16:55:50.550Z,11.10
2022-11-04T17:05:50.578Z,11.07
2022-11-04T17:15:50.586Z,10.91
2022-11-04T17:25:51.121Z,10.86
2022-11-04T17:35:51.162Z,10.61
2022-11-04T17:45:51.270Z,10.56
2022-11-04T17:55:51.494Z,10.45
2022-11-04T18:05:51.837Z,11.18
2022-11-04T18:15:51.891Z,10.99
2022-11-04T18:25:52.418Z,10.67
2022-11-04T18:35:52.337Z,10.56
2022-11-04T18:45:52.767Z,10.67
2022-11-04T18:55:52.955Z,10.61
2022-11-04T19:05:52.976Z,10.32
2022-11-04T19:15:53.831Z,10.18
2022-11-04T19:25:56.859Z,10.09
2022-11-04T19:35:54.482Z,10.18
2022-11-04T19:45:53.689Z,10.34
2022-11-04T19:55:53.776Z,10.30
2022-11-04T20:05:54.175Z,10.23
2022-11-04T20:15:54.340Z,10.07
2022-11-04T20:26:01.244Z,9.93
2022-11-04T20:35:54.530Z,9.69
2022-11-04T20:45:54.911Z,9.51
2022-11-04T20:55:55.159Z,9.31
2022-11-04T21:05:55.209Z,9.33
2022-11-04T21:15:55.257Z,9.26
2022-11-04T21:25:55.533Z,9.23
2022-11-04T21:35:55.575Z,9.10
2022-11-04T21:45:55.873Z,8.91
2022-11-04T21:55:56.069Z,8.87
2022-11-04T22:05:56.221Z,8.81
2022-11-04T22:15:56.261Z,8.74
2022-11-04T22:25:56.586Z,8.71
2022-11-04T22:35:56.606Z,8.61
2022-11-04T22:45:56.925Z,8.62
2022-11-04T22:55:56.941Z,8.61
2022-11-04T23:05:57.279Z,8.71
2022-11-04T23:15:57.307Z,8.56
2022-11-04T23:25:57.619Z,8.56
2022-11-04T23:35:57.644Z,8.53
2022-11-04T23:45:57.994Z,8.50
2022-11-04T23:55:58.016Z,8.43
